sensor_id;sensor_type;location;lat;lon;timestamp;temperature;humidity
18361;SHT31;9308;48.550;9.108;2022-11-24T00:01:27;7.51;80.95
18361;SHT31;9308;48.550;9.108;2022-11-24T00:03:58;7.56;80.58
18361;SHT31;9308;48.550;9.108;2022-11-24T00:06:25;7.67;80.20
18361;SHT31;9308;48.550;9.108;2022-11-24T00:08:51;7.53;80.53
18361;SHT31;9308;48.550;9.108;2022-11-24T00:11:20;7.55;80.42
18361;SHT31;9308;48.550;9.108;2022-11-24T00:13:45;7.39;80.85
18361;SHT31;9308;48.550;9.108;2022-11-24T00:18:39;7.41;81.17
18361;SHT31;9308;48.550;9.108;2022-11-24T00:21:06;7.45;80.69
18361;SHT31;9308;48.550;9.108;2022-11-24T00:23:32;7.45;80.32
18361;SHT31;9308;48.550;9.108;2022-11-24T00:26:05;7.34;80.51
18361;SHT31;9308;48.550;9.108;2022-11-24T00:28:32;7.35;81.08
18361;SHT31;9308;48.550;9.108;2022-11-24T00:30:58;7.31;81.14
18361;SHT31;9308;48.550;9.108;2022-11-24T00:33:23;7.20;81.35
18361;SHT31;9308;48.550;9.108;2022-11-24T00:35:56;7.11;81.34
18361;SHT31;9308;48.550;9.108;2022-11-24T00:38:22;7.18;80.94
18361;SHT31;9308;48.550;9.108;2022-11-24T00:40:49;7.21;81.29
18361;SHT31;9308;48.550;9.108;2022-11-24T00:43:14;7.18;81.20
18361;SHT31;9308;48.550;9.108;2022-11-24T00:45:41;7.20;81.31
18361;SHT31;9308;48.550;9.108;2022-11-24T00:48:06;7.17;81.07
18361;SHT31;9308;48.550;9.108;2022-11-24T00:50:32;7.21;81.00
18361;SHT31;9308;48.550;9.108;2022-11-24T00:52:57;7.13;81.14
18361;SHT31;9308;48.550;9.108;2022-11-24T00:55:23;7.11;81.20
18361;SHT31;9308;48.550;9.108;2022-11-24T00:57:48;7.18;80.95
18361;SHT31;9308;48.550;9.108;2022-11-24T01:00:14;7.21;80.86
18361;SHT31;9308;48.550;9.108;2022-11-24T01:02:39;7.04;81.03
18361;SHT31;9308;48.550;9.108;2022-11-24T01:05:05;7.10;81.16
18361;SHT31;9308;48.550;9.108;2022-11-24T01:07:31;7.07;80.80
18361;SHT31;9308;48.550;9.108;2022-11-24T01:09:56;7.08;80.81
18361;SHT31;9308;48.550;9.108;2022-11-24T01:12:22;7.00;80.75
18361;SHT31;9308;48.550;9.108;2022-11-24T01:14:47;7.07;81.05
18361;SHT31;9308;48.550;9.108;2022-11-24T01:17:12;6.96;81.17
18361;SHT31;9308;48.550;9.108;2022-11-24T01:19:38;6.96;81.04
18361;SHT31;9308;48.550;9.108;2022-11-24T01:22:03;7.08;80.32
18361;SHT31;9308;48.550;9.108;2022-11-24T01:24:29;6.94;80.31
18361;SHT31;9308;48.550;9.108;2022-11-24T01:26:54;6.85;80.12
18361;SHT31;9308;48.550;9.108;2022-11-24T01:29:20;6.77;80.53
18361;SHT31;9308;48.550;9.108;2022-11-24T01:31:45;6.60;79.98
18361;SHT31;9308;48.550;9.108;2022-11-24T01:34:10;6.59;80.23
18361;SHT31;9308;48.550;9.108;2022-11-24T01:36:38;6.62;80.15
18361;SHT31;9308;48.550;9.108;2022-11-24T01:39:04;6.85;80.20
18361;SHT31;9308;48.550;9.108;2022-11-24T01:41:29;6.60;80.46
18361;SHT31;9308;48.550;9.108;2022-11-24T01:43:55;6.53;80.28
18361;SHT31;9308;48.550;9.108;2022-11-24T01:46:42;6.59;80.85
18361;SHT31;9308;48.550;9.108;2022-11-24T01:49:16;6.60;80.47
18361;SHT31;9308;48.550;9.108;2022-11-24T01:51:54;6.76;80.34
18361;SHT31;9308;48.550;9.108;2022-11-24T01:54:29;6.79;80.58
18361;SHT31;9308;48.550;9.108;2022-11-24T01:57:01;6.89;80.72
18361;SHT31;9308;48.550;9.108;2022-11-24T01:59:28;6.80;80.31
18361;SHT31;9308;48.550;9.108;2022-11-24T02:01:55;6.94;80.75
18361;SHT31;9308;48.550;9.108;2022-11-24T02:04:24;6.94;80.38
18361;SHT31;9308;48.550;9.108;2022-11-24T02:06:52;6.72;80.76
18361;SHT31;9308;48.550;9.108;2022-11-24T02:09:25;6.80;80.57
18361;SHT31;9308;48.550;9.108;2022-11-24T02:11:52;6.66;81.23
18361;SHT31;9308;48.550;9.108;2022-11-24T02:14:19;6.76;80.85
18361;SHT31;9308;48.550;9.108;2022-11-24T02:16:50;6.65;81.06
18361;SHT31;9308;48.550;9.108;2022-11-24T02:20:22;6.60;80.62
18361;SHT31;9308;48.550;9.108;2022-11-24T02:28:11;6.53;81.12
18361;SHT31;9308;48.550;9.108;2022-11-24T02:30:37;6.52;80.87
18361;SHT31;9308;48.550;9.108;2022-11-24T02:33:03;6.46;80.93
18361;SHT31;9308;48.550;9.108;2022-11-24T02:35:28;6.44;80.14
18361;SHT31;9308;48.550;9.108;2022-11-24T02:37:54;6.42;80.09
18361;SHT31;9308;48.550;9.108;2022-11-24T02:40:22;6.39;80.39
18361;SHT31;9308;48.550;9.108;2022-11-24T02:42:51;6.27;80.76
18361;SHT31;9308;48.550;9.108;2022-11-24T02:45:19;6.37;81.07
18361;SHT31;9308;48.550;9.108;2022-11-24T02:47:45;6.45;80.52
18361;SHT31;9308;48.550;9.108;2022-11-24T02:50:10;6.31;81.00
18361;SHT31;9308;48.550;9.108;2022-11-24T02:52:36;6.10;81.56
18361;SHT31;9308;48.550;9.108;2022-11-24T02:55:02;6.13;81.17
18361;SHT31;9308;48.550;9.108;2022-11-24T02:57:28;6.09;80.64
18361;SHT31;9308;48.550;9.108;2022-11-24T02:59:54;6.01;80.36
18361;SHT31;9308;48.550;9.108;2022-11-24T03:02:19;6.03;80.08
18361;SHT31;9308;48.550;9.108;2022-11-24T03:04:45;5.91;79.99
18361;SHT31;9308;48.550;9.108;2022-11-24T03:07:10;5.91;80.34
18361;SHT31;9308;48.550;9.108;2022-11-24T03:09:36;5.94;80.59
18361;SHT31;9308;48.550;9.108;2022-11-24T03:12:01;5.90;80.09
18361;SHT31;9308;48.550;9.108;2022-11-24T03:14:26;5.61;80.53
18361;SHT31;9308;48.550;9.108;2022-11-24T03:16:52;5.56;81.56
18361;SHT31;9308;48.550;9.108;2022-11-24T03:19:17;5.55;80.72
18361;SHT31;9308;48.550;9.108;2022-11-24T03:21:43;5.48;80.31
18361;SHT31;9308;48.550;9.108;2022-11-24T03:24:08;5.36;80.76
18361;SHT31;9308;48.550;9.108;2022-11-24T03:26:34;5.49;80.41
18361;SHT31;9308;48.550;9.108;2022-11-24T03:28:59;5.39;80.38
18361;SHT31;9308;48.550;9.108;2022-11-24T03:31:25;5.25;80.75
18361;SHT31;9308;48.550;9.108;2022-11-24T03:33:50;5.21;80.43
18361;SHT31;9308;48.550;9.108;2022-11-24T03:36:16;5.20;80.58
18361;SHT31;9308;48.550;9.108;2022-11-24T03:38:42;4.90;80.99
18361;SHT31;9308;48.550;9.108;2022-11-24T03:41:08;5.08;80.77
18361;SHT31;9308;48.550;9.108;2022-11-24T03:43:33;5.01;80.28
18361;SHT31;9308;48.550;9.108;2022-11-24T03:45:59;5.04;80.70
18361;SHT31;9308;48.550;9.108;2022-11-24T03:48:24;4.90;80.72
18361;SHT31;9308;48.550;9.108;2022-11-24T03:50:56;4.93;80.64
18361;SHT31;9308;48.550;9.108;2022-11-24T03:53:23;5.01;80.61
18361;SHT31;9308;48.550;9.108;2022-11-24T03:55:49;5.11;80.69
18361;SHT31;9308;48.550;9.108;2022-11-24T03:58:14;5.11;80.19
18361;SHT31;9308;48.550;9.108;2022-11-24T04:00:40;5.18;81.45
18361;SHT31;9308;48.550;9.108;2022-11-24T04:03:06;5.21;81.55
18361;SHT31;9308;48.550;9.108;2022-11-24T04:05:31;5.24;81.04
18361;SHT31;9308;48.550;9.108;2022-11-24T04:07:57;5.17;80.80
18361;SHT31;9308;48.550;9.108;2022-11-24T04:10:27;5.11;80.69
18361;SHT31;9308;48.550;9.108;2022-11-24T04:12:52;5.21;81.32
18361;SHT31;9308;48.550;9.108;2022-11-24T04:15:18;5.25;81.84
18361;SHT31;9308;48.550;9.108;2022-11-24T04:17:45;5.38;81.34
18361;SHT31;9308;48.550;9.108;2022-11-24T04:20:12;5.27;81.24
18361;SHT31;9308;48.550;9.108;2022-11-24T04:22:38;5.44;81.34
18361;SHT31;9308;48.550;9.108;2022-11-24T04:25:04;5.42;80.96
18361;SHT31;9308;48.550;9.108;2022-11-24T04:27:34;5.62;81.11
18361;SHT31;9308;48.550;9.108;2022-11-24T04:30:00;5.66;81.20
18361;SHT31;9308;48.550;9.108;2022-11-24T04:32:26;5.82;80.76
18361;SHT31;9308;48.550;9.108;2022-11-24T04:34:51;5.63;80.86
18361;SHT31;9308;48.550;9.108;2022-11-24T04:37:17;5.51;81.25
18361;SHT31;9308;48.550;9.108;2022-11-24T04:39:42;5.65;81.05
18361;SHT31;9308;48.550;9.108;2022-11-24T04:42:09;5.52;80.84
18361;SHT31;9308;48.550;9.108;2022-11-24T04:44:34;5.68;81.07
18361;SHT31;9308;48.550;9.108;2022-11-24T04:47:00;5.71;81.42
18361;SHT31;9308;48.550;9.108;2022-11-24T04:49:25;5.82;80.86
18361;SHT31;9308;48.550;9.108;2022-11-24T04:51:51;5.66;81.38
18361;SHT31;9308;48.550;9.108;2022-11-24T04:54:16;5.72;80.78
18361;SHT31;9308;48.550;9.108;2022-11-24T04:56:42;5.71;80.69
18361;SHT31;9308;48.550;9.108;2022-11-24T04:59:13;5.79;80.59
18361;SHT31;9308;48.550;9.108;2022-11-24T05:01:40;5.41;80.97
18361;SHT31;9308;48.550;9.108;2022-11-24T05:04:07;5.52;80.78
18361;SHT31;9308;48.550;9.108;2022-11-24T05:06:34;5.38;80.66
18361;SHT31;9308;48.550;9.108;2022-11-24T05:08:59;5.44;80.55
18361;SHT31;9308;48.550;9.108;2022-11-24T05:11:25;5.24;81.13
18361;SHT31;9308;48.550;9.108;2022-11-24T05:13:51;5.20;80.98
18361;SHT31;9308;48.550;9.108;2022-11-24T05:16:17;5.23;80.78
18361;SHT31;9308;48.550;9.108;2022-11-24T05:18:43;5.41;80.31
18361;SHT31;9308;48.550;9.108;2022-11-24T05:21:08;5.39;80.37
18361;SHT31;9308;48.550;9.108;2022-11-24T05:23:34;5.35;80.74
18361;SHT31;9308;48.550;9.108;2022-11-24T05:26:00;5.42;80.56
18361;SHT31;9308;48.550;9.108;2022-11-24T05:28:26;5.44;80.75
18361;SHT31;9308;48.550;9.108;2022-11-24T05:30:52;5.58;80.45
18361;SHT31;9308;48.550;9.108;2022-11-24T05:33:18;5.59;80.64
18361;SHT31;9308;48.550;9.108;2022-11-24T05:35:46;5.58;80.94
18361;SHT31;9308;48.550;9.108;2022-11-24T05:38:14;5.63;81.01
18361;SHT31;9308;48.550;9.108;2022-11-24T05:40:40;5.68;81.02
18361;SHT31;9308;48.550;9.108;2022-11-24T05:43:10;5.62;81.21
18361;SHT31;9308;48.550;9.108;2022-11-24T05:45:36;5.61;81.45
18361;SHT31;9308;48.550;9.108;2022-11-24T05:48:07;5.68;81.01
18361;SHT31;9308;48.550;9.108;2022-11-24T05:50:32;5.66;80.85
18361;SHT31;9308;48.550;9.108;2022-11-24T05:53:06;5.58;80.83
18361;SHT31;9308;48.550;9.108;2022-11-24T05:55:33;5.62;80.79
18361;SHT31;9308;48.550;9.108;2022-11-24T05:58:00;5.65;80.78
18361;SHT31;9308;48.550;9.108;2022-11-24T06:00:28;5.71;80.92
18361;SHT31;9308;48.550;9.108;2022-11-24T06:02:53;5.61;80.85
18361;SHT31;9308;48.550;9.108;2022-11-24T06:05:19;5.63;80.99
18361;SHT31;9308;48.550;9.108;2022-11-24T06:07:44;5.63;80.77
18361;SHT31;9308;48.550;9.108;2022-11-24T06:10:10;5.65;81.24
18361;SHT31;9308;48.550;9.108;2022-11-24T06:12:35;5.78;80.94
18361;SHT31;9308;48.550;9.108;2022-11-24T06:15:01;5.78;80.55
18361;SHT31;9308;48.550;9.108;2022-11-24T06:17:26;5.93;80.61
18361;SHT31;9308;48.550;9.108;2022-11-24T06:19:52;5.79;80.94
18361;SHT31;9308;48.550;9.108;2022-11-24T06:22:17;5.87;81.09
18361;SHT31;9308;48.550;9.108;2022-11-24T06:24:44;6.01;80.85
18361;SHT31;9308;48.550;9.108;2022-11-24T06:27:11;6.14;80.97
18361;SHT31;9308;48.550;9.108;2022-11-24T06:29:37;6.17;80.14
18361;SHT31;9308;48.550;9.108;2022-11-24T06:32:03;6.09;80.90
18361;SHT31;9308;48.550;9.108;2022-11-24T06:34:28;6.10;80.72
18361;SHT31;9308;48.550;9.108;2022-11-24T06:36:54;6.14;80.71
18361;SHT31;9308;48.550;9.108;2022-11-24T06:39:19;5.99;81.15
18361;SHT31;9308;48.550;9.108;2022-11-24T06:41:45;5.99;81.15
18361;SHT31;9308;48.550;9.108;2022-11-24T06:44:10;6.01;81.08
18361;SHT31;9308;48.550;9.108;2022-11-24T06:46:36;6.07;81.15
18361;SHT31;9308;48.550;9.108;2022-11-24T06:49:01;6.25;80.80
18361;SHT31;9308;48.550;9.108;2022-11-24T06:51:27;6.25;80.59
18361;SHT31;9308;48.550;9.108;2022-11-24T06:53:52;6.42;80.37
18361;SHT31;9308;48.550;9.108;2022-11-24T06:56:19;6.53;80.38
18361;SHT31;9308;48.550;9.108;2022-11-24T06:58:46;6.62;79.88
18361;SHT31;9308;48.550;9.108;2022-11-24T07:01:23;6.72;80.06
18361;SHT31;9308;48.550;9.108;2022-11-24T07:03:50;6.79;79.92
18361;SHT31;9308;48.550;9.108;2022-11-24T07:06:16;6.93;79.28
18361;SHT31;9308;48.550;9.108;2022-11-24T07:08:43;6.90;79.60
18361;SHT31;9308;48.550;9.108;2022-11-24T07:11:11;6.94;80.16
18361;SHT31;9308;48.550;9.108;2022-11-24T07:16:14;7.07;79.56
18361;SHT31;9308;48.550;9.108;2022-11-24T07:18:40;7.11;80.09
18361;SHT31;9308;48.550;9.108;2022-11-24T07:21:06;7.08;79.99
18361;SHT31;9308;48.550;9.108;2022-11-24T07:23:31;7.31;79.73
18361;SHT31;9308;48.550;9.108;2022-11-24T07:25:57;7.27;79.80
18361;SHT31;9308;48.550;9.108;2022-11-24T07:28:23;7.41;79.52
18361;SHT31;9308;48.550;9.108;2022-11-24T07:30:49;7.55;78.78
18361;SHT31;9308;48.550;9.108;2022-11-24T07:33:14;7.69;78.75
18361;SHT31;9308;48.550;9.108;2022-11-24T07:35:43;7.59;79.04
18361;SHT31;9308;48.550;9.108;2022-11-24T07:38:08;7.70;78.28
18361;SHT31;9308;48.550;9.108;2022-11-24T07:40:34;7.69;78.79
18361;SHT31;9308;48.550;9.108;2022-11-24T07:42:59;7.79;78.77
18361;SHT31;9308;48.550;9.108;2022-11-24T07:45:25;7.78;79.02
18361;SHT31;9308;48.550;9.108;2022-11-24T07:47:51;7.86;78.99
18361;SHT31;9308;48.550;9.108;2022-11-24T07:50:16;7.80;79.39
18361;SHT31;9308;48.550;9.108;2022-11-24T07:52:42;7.70;79.87
18361;SHT31;9308;48.550;9.108;2022-11-24T07:55:08;7.75;79.87
18361;SHT31;9308;48.550;9.108;2022-11-24T07:57:34;7.76;80.13
18361;SHT31;9308;48.550;9.108;2022-11-24T07:59:59;7.89;79.84
18361;SHT31;9308;48.550;9.108;2022-11-24T08:02:25;7.79;80.56
18361;SHT31;9308;48.550;9.108;2022-11-24T08:04:50;7.80;80.81
18361;SHT31;9308;48.550;9.108;2022-11-24T08:07:15;7.94;80.22
18361;SHT31;9308;48.550;9.108;2022-11-24T08:09:41;7.78;80.50
18361;SHT31;9308;48.550;9.108;2022-11-24T08:12:06;7.83;80.97
18361;SHT31;9308;48.550;9.108;2022-11-24T08:14:32;7.83;80.58
18361;SHT31;9308;48.550;9.108;2022-11-24T08:16:57;7.78;80.94
18361;SHT31;9308;48.550;9.108;2022-11-24T08:19:22;7.65;81.98
18361;SHT31;9308;48.550;9.108;2022-11-24T08:21:48;7.72;81.76
18361;SHT31;9308;48.550;9.108;2022-11-24T08:24:14;7.78;81.75
18361;SHT31;9308;48.550;9.108;2022-11-24T08:26:41;7.99;81.54
18361;SHT31;9308;48.550;9.108;2022-11-24T08:29:06;8.00;81.58
18361;SHT31;9308;48.550;9.108;2022-11-24T08:31:32;8.11;80.94
18361;SHT31;9308;48.550;9.108;2022-11-24T08:34:01;8.10;81.09
18361;SHT31;9308;48.550;9.108;2022-11-24T08:36:27;8.11;81.46
18361;SHT31;9308;48.550;9.108;2022-11-24T08:38:54;7.97;82.03
18361;SHT31;9308;48.550;9.108;2022-11-24T08:41:20;8.10;81.66
18361;SHT31;9308;48.550;9.108;2022-11-24T08:43:46;8.10;81.51
18361;SHT31;9308;48.550;9.108;2022-11-24T08:46:14;8.06;81.60
18361;SHT31;9308;48.550;9.108;2022-11-24T08:48:42;8.18;81.18
18361;SHT31;9308;48.550;9.108;2022-11-24T08:51:10;8.38;80.25
18361;SHT31;9308;48.550;9.108;2022-11-24T08:53:36;8.48;80.31
18361;SHT31;9308;48.550;9.108;2022-11-24T08:56:04;8.62;79.68
18361;SHT31;9308;48.550;9.108;2022-11-24T08:58:30;9.07;78.24
18361;SHT31;9308;48.550;9.108;2022-11-24T09:01:03;9.08;77.77
18361;SHT31;9308;48.550;9.108;2022-11-24T09:03:29;9.05;77.91
18361;SHT31;9308;48.550;9.108;2022-11-24T09:05:54;9.27;77.36
18361;SHT31;9308;48.550;9.108;2022-11-24T09:08:20;9.31;77.67
18361;SHT31;9308;48.550;9.108;2022-11-24T09:10:45;9.49;77.86
18361;SHT31;9308;48.550;9.108;2022-11-24T09:13:11;9.32;77.05
18361;SHT31;9308;48.550;9.108;2022-11-24T09:15:36;9.18;77.94
18361;SHT31;9308;48.550;9.108;2022-11-24T09:18:02;9.56;77.63
18361;SHT31;9308;48.550;9.108;2022-11-24T09:20:27;10.10;75.99
18361;SHT31;9308;48.550;9.108;2022-11-24T09:22:52;10.13;76.35
18361;SHT31;9308;48.550;9.108;2022-11-24T09:25:18;10.36;75.82
18361;SHT31;9308;48.550;9.108;2022-11-24T09:27:43;10.28;75.72
18361;SHT31;9308;48.550;9.108;2022-11-24T09:30:09;9.90;76.61
18361;SHT31;9308;48.550;9.108;2022-11-24T09:32:35;9.89;76.31
18361;SHT31;9308;48.550;9.108;2022-11-24T09:35:02;9.70;77.22
18361;SHT31;9308;48.550;9.108;2022-11-24T09:37:27;9.67;77.21
18361;SHT31;9308;48.550;9.108;2022-11-24T09:39:52;9.49;77.91
18361;SHT31;9308;48.550;9.108;2022-11-24T09:45:26;10.71;74.01
18361;SHT31;9308;48.550;9.108;2022-11-24T09:48:11;10.15;74.90
18361;SHT31;9308;48.550;9.108;2022-11-24T09:50:38;9.98;76.24
18361;SHT31;9308;48.550;9.108;2022-11-24T09:53:23;9.89;76.89
18361;SHT31;9308;48.550;9.108;2022-11-24T09:55:54;10.00;76.86
18361;SHT31;9308;48.550;9.108;2022-11-24T09:58:32;10.04;76.72
18361;SHT31;9308;48.550;9.108;2022-11-24T10:00:59;10.11;76.64
18361;SHT31;9308;48.550;9.108;2022-11-24T10:03:32;10.14;76.33
18361;SHT31;9308;48.550;9.108;2022-11-24T10:06:01;10.07;75.89
18361;SHT31;9308;48.550;9.108;2022-11-24T10:11:12;10.13;76.69
18361;SHT31;9308;48.550;9.108;2022-11-24T10:24:26;11.03;73.48
18361;SHT31;9308;48.550;9.108;2022-11-24T10:27:17;10.94;73.30
18361;SHT31;9308;48.550;9.108;2022-11-24T10:29:43;11.06;72.64
18361;SHT31;9308;48.550;9.108;2022-11-24T10:32:17;11.58;71.22
18361;SHT31;9308;48.550;9.108;2022-11-24T10:34:44;11.49;71.83
18361;SHT31;9308;48.550;9.108;2022-11-24T10:39:51;10.94;73.45
18361;SHT31;9308;48.550;9.108;2022-11-24T10:42:30;10.48;74.08
18361;SHT31;9308;48.550;9.108;2022-11-24T10:47:25;10.17;75.05
18361;SHT31;9308;48.550;9.108;2022-11-24T10:49:57;10.25;75.05
18361;SHT31;9308;48.550;9.108;2022-11-24T10:52:24;9.97;75.83
18361;SHT31;9308;48.550;9.108;2022-11-24T10:55:00;9.93;75.35
18361;SHT31;9308;48.550;9.108;2022-11-24T10:57:29;10.03;75.53
18361;SHT31;9308;48.550;9.108;2022-11-24T10:59:55;9.80;75.69
18361;SHT31;9308;48.550;9.108;2022-11-24T11:02:38;9.91;76.20
18361;SHT31;9308;48.550;9.108;2022-11-24T11:05:24;10.14;76.19
18361;SHT31;9308;48.550;9.108;2022-11-24T11:10:34;10.21;76.43
18361;SHT31;9308;48.550;9.108;2022-11-24T11:13:19;10.59;75.02
18361;SHT31;9308;48.550;9.108;2022-11-24T11:15:45;11.04;73.53
18361;SHT31;9308;48.550;9.108;2022-11-24T11:18:14;11.32;73.13
18361;SHT31;9308;48.550;9.108;2022-11-24T11:20:48;11.12;74.19
18361;SHT31;9308;48.550;9.108;2022-11-24T11:23:21;10.46;74.24
18361;SHT31;9308;48.550;9.108;2022-11-24T11:25:48;10.39;75.00
18361;SHT31;9308;48.550;9.108;2022-11-24T11:31:18;10.73;74.88
18361;SHT31;9308;48.550;9.108;2022-11-24T11:33:57;11.37;72.29
18361;SHT31;9308;48.550;9.108;2022-11-24T11:36:25;11.25;72.45
18361;SHT31;9308;48.550;9.108;2022-11-24T11:38:51;11.20;73.14
18361;SHT31;9308;48.550;9.108;2022-11-24T11:41:28;11.14;73.48
18361;SHT31;9308;48.550;9.108;2022-11-24T11:44:12;11.24;73.02
18361;SHT31;9308;48.550;9.108;2022-11-24T11:46:40;11.93;71.93
18361;SHT31;9308;48.550;9.108;2022-11-24T11:49:10;11.83;70.50
18361;SHT31;9308;48.550;9.108;2022-11-24T11:52:38;11.17;72.83
18361;SHT31;9308;48.550;9.108;2022-11-24T11:57:53;11.44;73.04
18361;SHT31;9308;48.550;9.108;2022-11-24T12:00:22;11.48;72.00
18361;SHT31;9308;48.550;9.108;2022-11-24T12:06:07;11.44;71.88
18361;SHT31;9308;48.550;9.108;2022-11-24T12:11:08;11.38;71.51
18361;SHT31;9308;48.550;9.108;2022-11-24T12:13:52;11.17;69.82
18361;SHT31;9308;48.550;9.108;2022-11-24T12:16:29;11.38;69.76
18361;SHT31;9308;48.550;9.108;2022-11-24T12:22:06;11.06;71.46
18361;SHT31;9308;48.550;9.108;2022-11-24T12:25:03;11.08;69.48
18361;SHT31;9308;48.550;9.108;2022-11-24T12:30:19;10.94;70.08
18361;SHT31;9308;48.550;9.108;2022-11-24T12:35:31;10.82;70.27
18361;SHT31;9308;48.550;9.108;2022-11-24T12:43:32;10.46;69.63
18361;SHT31;9308;48.550;9.108;2022-11-24T12:46:16;10.35;68.84
18361;SHT31;9308;48.550;9.108;2022-11-24T12:48:55;10.69;68.13
18361;SHT31;9308;48.550;9.108;2022-11-24T12:51:40;10.63;68.28
18361;SHT31;9308;48.550;9.108;2022-11-24T12:54:12;10.55;69.65
18361;SHT31;9308;48.550;9.108;2022-11-24T12:56:46;10.76;69.21
18361;SHT31;9308;48.550;9.108;2022-11-24T13:04:28;10.55;68.72
18361;SHT31;9308;48.550;9.108;2022-11-24T13:07:08;10.41;69.51
18361;SHT31;9308;48.550;9.108;2022-11-24T13:09:35;10.53;69.32
18361;SHT31;9308;48.550;9.108;2022-11-24T13:12:13;10.36;69.01
18361;SHT31;9308;48.550;9.108;2022-11-24T13:14:43;10.87;67.13
18361;SHT31;9308;48.550;9.108;2022-11-24T13:17:40;11.56;66.56
18361;SHT31;9308;48.550;9.108;2022-11-24T13:22:50;11.77;64.83
18361;SHT31;9308;48.550;9.108;2022-11-24T13:25:20;11.41;63.98
18361;SHT31;9308;48.550;9.108;2022-11-24T13:27:51;11.67;65.03
18361;SHT31;9308;48.550;9.108;2022-11-24T13:32:59;11.48;65.57
18361;SHT31;9308;48.550;9.108;2022-11-24T13:35:26;11.39;63.44
18361;SHT31;9308;48.550;9.108;2022-11-24T13:37:51;11.44;64.79
18361;SHT31;9308;48.550;9.108;2022-11-24T13:53:28;11.35;63.90
18361;SHT31;9308;48.550;9.108;2022-11-24T13:58:39;11.03;62.55
18361;SHT31;9308;48.550;9.108;2022-11-24T14:04:11;10.75;62.31
18361;SHT31;9308;48.550;9.108;2022-11-24T14:06:46;10.59;63.26
18361;SHT31;9308;48.550;9.108;2022-11-24T14:09:34;10.46;64.60
18361;SHT31;9308;48.550;9.108;2022-11-24T14:12:27;10.44;64.70
18361;SHT31;9308;48.550;9.108;2022-11-24T14:15:24;10.46;64.05
18361;SHT31;9308;48.550;9.108;2022-11-24T14:17:49;10.45;64.52
18361;SHT31;9308;48.550;9.108;2022-11-24T14:20:23;10.45;63.42
18361;SHT31;9308;48.550;9.108;2022-11-24T14:22:49;10.76;65.56
18361;SHT31;9308;48.550;9.108;2022-11-24T14:25:33;10.63;64.35
18361;SHT31;9308;48.550;9.108;2022-11-24T14:27:59;10.53;64.92
18361;SHT31;9308;48.550;9.108;2022-11-24T14:30:25;10.52;66.15
18361;SHT31;9308;48.550;9.108;2022-11-24T14:32:59;10.83;65.94
18361;SHT31;9308;48.550;9.108;2022-11-24T14:35:29;10.66;65.13
18361;SHT31;9308;48.550;9.108;2022-11-24T14:37:54;10.62;66.45
18361;SHT31;9308;48.550;9.108;2022-11-24T14:43:04;10.52;65.36
18361;SHT31;9308;48.550;9.108;2022-11-24T14:45:30;10.44;65.42
18361;SHT31;9308;48.550;9.108;2022-11-24T14:47:56;10.21;68.28
18361;SHT31;9308;48.550;9.108;2022-11-24T14:50:22;10.08;68.36
18361;SHT31;9308;48.550;9.108;2022-11-24T14:52:55;10.24;67.67
18361;SHT31;9308;48.550;9.108;2022-11-24T14:55:27;10.07;65.82
18361;SHT31;9308;48.550;9.108;2022-11-24T14:57:53;10.01;67.74
18361;SHT31;9308;48.550;9.108;2022-11-24T15:00:30;9.93;68.73
18361;SHT31;9308;48.550;9.108;2022-11-24T15:03:13;9.93;68.13
18361;SHT31;9308;48.550;9.108;2022-11-24T15:05:51;9.96;65.20
18361;SHT31;9308;48.550;9.108;2022-11-24T15:08:17;9.98;66.05
18361;SHT31;9308;48.550;9.108;2022-11-24T15:10:43;9.53;67.04
18361;SHT31;9308;48.550;9.108;2022-11-24T15:13:22;9.60;68.22
18361;SHT31;9308;48.550;9.108;2022-11-24T15:15:55;9.58;69.03
18361;SHT31;9308;48.550;9.108;2022-11-24T15:18:48;9.69;68.35
18361;SHT31;9308;48.550;9.108;2022-11-24T15:21:32;9.49;68.59
18361;SHT31;9308;48.550;9.108;2022-11-24T15:24:13;9.42;68.53
18361;SHT31;9308;48.550;9.108;2022-11-24T15:26:39;9.46;68.59
18361;SHT31;9308;48.550;9.108;2022-11-24T15:29:05;9.20;69.77
18361;SHT31;9308;48.550;9.108;2022-11-24T15:31:30;9.03;70.47
18361;SHT31;9308;48.550;9.108;2022-11-24T15:33:56;9.17;70.61
18361;SHT31;9308;48.550;9.108;2022-11-24T15:36:21;9.00;71.12
18361;SHT31;9308;48.550;9.108;2022-11-24T15:38:47;8.99;70.81
18361;SHT31;9308;48.550;9.108;2022-11-24T15:41:20;8.69;71.29
18361;SHT31;9308;48.550;9.108;2022-11-24T15:43:46;8.52;72.40
18361;SHT31;9308;48.550;9.108;2022-11-24T15:46:12;8.38;72.88
18361;SHT31;9308;48.550;9.108;2022-11-24T15:48:38;8.53;72.70
18361;SHT31;9308;48.550;9.108;2022-11-24T15:51:05;8.44;72.78
18361;SHT31;9308;48.550;9.108;2022-11-24T15:53:35;8.39;73.26
18361;SHT31;9308;48.550;9.108;2022-11-24T15:56:02;8.06;73.96
18361;SHT31;9308;48.550;9.108;2022-11-24T15:58:30;8.01;74.03
18361;SHT31;9308;48.550;9.108;2022-11-24T16:00:55;8.00;73.99
18361;SHT31;9308;48.550;9.108;2022-11-24T16:03:20;7.82;74.16
18361;SHT31;9308;48.550;9.108;2022-11-24T16:05:47;7.67;74.57
18361;SHT31;9308;48.550;9.108;2022-11-24T16:08:15;7.56;74.72
18361;SHT31;9308;48.550;9.108;2022-11-24T16:10:41;7.34;75.41
18361;SHT31;9308;48.550;9.108;2022-11-24T16:13:07;7.32;75.64
18361;SHT31;9308;48.550;9.108;2022-11-24T16:15:33;7.41;75.33
18361;SHT31;9308;48.550;9.108;2022-11-24T16:17:58;7.41;75.56
18361;SHT31;9308;48.550;9.108;2022-11-24T16:20:24;7.27;75.68
18361;SHT31;9308;48.550;9.108;2022-11-24T16:22:49;7.11;76.51
18361;SHT31;9308;48.550;9.108;2022-11-24T16:25:15;6.96;76.62
18361;SHT31;9308;48.550;9.108;2022-11-24T16:27:40;6.92;76.89
18361;SHT31;9308;48.550;9.108;2022-11-24T16:30:06;7.01;76.67
18361;SHT31;9308;48.550;9.108;2022-11-24T16:32:32;6.82;77.12
18361;SHT31;9308;48.550;9.108;2022-11-24T16:34:58;6.83;76.89
18361;SHT31;9308;48.550;9.108;2022-11-24T16:37:23;6.86;77.05
18361;SHT31;9308;48.550;9.108;2022-11-24T16:39:49;6.99;76.79
18361;SHT31;9308;48.550;9.108;2022-11-24T16:42:15;6.79;76.83
18361;SHT31;9308;48.550;9.108;2022-11-24T16:44:40;6.87;76.39
18361;SHT31;9308;48.550;9.108;2022-11-24T16:47:06;6.89;76.50
18361;SHT31;9308;48.550;9.108;2022-11-24T16:49:31;6.73;76.93
18361;SHT31;9308;48.550;9.108;2022-11-24T16:51:57;6.66;76.53
18361;SHT31;9308;48.550;9.108;2022-11-24T16:54:22;6.66;76.76
18361;SHT31;9308;48.550;9.108;2022-11-24T16:56:48;6.60;76.35
18361;SHT31;9308;48.550;9.108;2022-11-24T16:59:13;6.58;76.89
18361;SHT31;9308;48.550;9.108;2022-11-24T17:01:38;6.64;77.11
18361;SHT31;9308;48.550;9.108;2022-11-24T17:04:05;6.45;77.80
18361;SHT31;9308;48.550;9.108;2022-11-24T17:06:31;6.45;77.63
18361;SHT31;9308;48.550;9.108;2022-11-24T17:08:58;6.18;78.22
18361;SHT31;9308;48.550;9.108;2022-11-24T17:11:25;6.10;78.35
18361;SHT31;9308;48.550;9.108;2022-11-24T17:13:51;6.32;77.72
18361;SHT31;9308;48.550;9.108;2022-11-24T17:16:18;6.50;77.21
18361;SHT31;9308;48.550;9.108;2022-11-24T17:18:44;6.13;77.46
18361;SHT31;9308;48.550;9.108;2022-11-24T17:21:12;6.03;77.76
18361;SHT31;9308;48.550;9.108;2022-11-24T17:23:38;5.99;78.54
18361;SHT31;9308;48.550;9.108;2022-11-24T17:26:06;6.11;77.73
18361;SHT31;9308;48.550;9.108;2022-11-24T17:28:33;6.14;77.11
18361;SHT31;9308;48.550;9.108;2022-11-24T17:31:05;6.01;77.60
18361;SHT31;9308;48.550;9.108;2022-11-24T17:33:30;6.04;77.85
18361;SHT31;9308;48.550;9.108;2022-11-24T17:36:00;5.90;77.94
18361;SHT31;9308;48.550;9.108;2022-11-24T17:38:26;5.93;78.24